createdAt,value
2019-01-23T11:01:48.943Z,9.03
2019-01-23T11:04:23.875Z,5.07
2019-01-23T11:06:57.980Z,5.37
2019-01-23T11:09:33.404Z,6.53
2019-01-23T11:12:09.976Z,5.43
2019-01-23T11:14:43.612Z,8.30
2019-01-23T11:17:18.199Z,14.77
2019-01-23T11:19:52.050Z,8.63
2019-01-23T11:22:27.728Z,7.17
2019-01-23T11:25:02.619Z,6.57
2019-01-23T11:27:36.959Z,7.83
2019-01-23T11:30:16.731Z,5.43
2019-01-23T11:32:51.541Z,6.53
2019-01-23T11:35:26.626Z,7.23
2019-01-23T11:38:00.927Z,7.77
2019-01-23T11:40:35.167Z,8.13
2019-01-23T11:43:10.616Z,8.13
2019-01-23T11:45:44.239Z,8.93
2019-01-23T11:48:20.539Z,6.23
2019-01-23T11:50:55.582Z,7.73
2019-01-23T11:53:30.855Z,11.20
2019-01-23T11:56:04.782Z,10.67
2019-01-23T11:58:43.171Z,9.53
2019-01-23T12:01:20.184Z,10.27
2019-01-23T12:03:54.849Z,10.47
2019-01-23T12:06:32.355Z,11.03
2019-01-23T12:09:19.561Z,15.23
2019-01-23T12:12:05.003Z,9.63
2019-01-23T12:14:43.346Z,14.23
2019-01-23T12:17:19.948Z,16.43
2019-01-23T12:19:54.723Z,12.20
2019-01-23T12:22:31.749Z,11.73
2019-01-23T12:25:08.225Z,9.80
2019-01-23T12:27:43.841Z,11.30
2019-01-23T12:30:28.928Z,22.03
2019-01-23T12:33:05.505Z,8.20
2019-01-23T12:35:43.251Z,8.73
2019-01-23T12:38:17.854Z,11.97
2019-01-23T12:40:53.187Z,10.17
2019-01-23T12:43:37.783Z,14.17
2019-01-23T12:46:13.326Z,11.63
2019-01-23T12:48:49.281Z,12.60
2019-01-23T12:51:23.439Z,16.37
2019-01-23T12:53:59.296Z,9.83
2019-01-23T12:56:34.821Z,10.57
2019-01-23T12:59:13.847Z,12.83
2019-01-23T13:01:48.614Z,7.30
2019-01-23T13:04:24.119Z,16.07
2019-01-23T13:06:58.719Z,9.20
2019-01-23T13:09:35.035Z,9.57
2019-01-23T13:12:09.939Z,11.50
2019-01-23T13:14:47.483Z,7.13
2019-01-23T13:17:23.071Z,10.53
2019-01-23T13:19:57.216Z,18.67
2019-01-23T13:22:33.592Z,11.90
2019-01-23T13:25:09.197Z,8.20
2019-01-23T13:27:44.246Z,18.60
2019-01-23T13:30:21.225Z,12.50
2019-01-23T13:32:56.006Z,12.97
2019-01-23T13:35:40.131Z,13.73
2019-01-23T13:38:18.752Z,11.10
2019-01-23T13:40:53.131Z,10.60
2019-01-23T13:43:28.085Z,17.47
2019-01-23T13:46:01.092Z,11.60
2019-01-23T13:48:37.389Z,25.17
2019-01-23T13:51:11.989Z,12.70
2019-01-23T13:53:47.880Z,11.73
2019-01-23T13:56:23.382Z,18.67
2019-01-23T13:58:59.411Z,16.43
2019-01-23T14:01:35.366Z,23.23
2019-01-23T14:04:11.774Z,15.97
2019-01-23T14:06:47.411Z,14.17
2019-01-23T14:09:21.978Z,13.67
2019-01-23T14:11:57.038Z,17.27
2019-01-23T14:14:32.103Z,24.13
2019-01-23T14:17:08.118Z,19.37
2019-01-23T14:19:45.211Z,18.13
2019-01-23T14:22:19.885Z,16.43
2019-01-23T14:24:54.338Z,26.93
2019-01-23T14:27:29.235Z,24.77
2019-01-23T14:30:03.636Z,19.50
2019-01-23T14:32:40.692Z,25.83
2019-01-23T14:35:15.056Z,19.93
2019-01-23T14:37:49.909Z,16.47
2019-01-23T14:40:25.258Z,17.70
2019-01-23T14:43:00.467Z,14.20
2019-01-23T14:45:35.017Z,15.00
2019-01-23T14:48:12.202Z,12.83
2019-01-23T14:50:47.113Z,17.97
2019-01-23T14:53:25.230Z,25.83
2019-01-23T14:56:00.609Z,15.03
2019-01-23T14:58:36.088Z,14.23
2019-01-23T15:01:13.526Z,18.10
2019-01-23T15:03:47.988Z,14.87
2019-01-23T15:06:23.450Z,17.20
2019-01-23T15:08:59.067Z,16.13
2019-01-23T15:11:36.191Z,15.67
2019-01-23T15:14:12.978Z,16.10
2019-01-23T15:16:47.391Z,12.53
2019-01-23T15:19:21.522Z,14.10
2019-01-23T15:21:56.498Z,11.97
2019-01-23T15:24:33.689Z,14.67
2019-01-23T15:27:08.333Z,22.27
2019-01-23T15:29:42.726Z,20.47
2019-01-23T15:32:21.025Z,18.67
2019-01-23T15:34:55.613Z,21.53
2019-01-23T15:37:31.074Z,17.60
2019-01-23T15:40:09.753Z,15.07
2019-01-23T15:42:46.395Z,17.97
2019-01-23T15:45:22.607Z,15.77
2019-01-23T15:47:57.955Z,12.63
2019-01-23T15:50:33.736Z,22.37
2019-01-23T15:53:08.972Z,19.23
2019-01-23T15:55:43.059Z,13.97
2019-01-23T15:58:19.773Z,14.13
2019-01-23T16:00:56.647Z,15.13
2019-01-23T16:03:32.687Z,16.10
2019-01-23T16:06:07.420Z,14.80
2019-01-23T16:08:43.807Z,10.40
2019-01-23T16:11:19.898Z,12.10
2019-01-23T16:13:57.432Z,14.20
2019-01-23T16:16:31.819Z,10.93
2019-01-23T16:19:07.852Z,16.80
2019-01-23T16:21:45.821Z,11.90
2019-01-23T16:24:20.339Z,12.17
2019-01-23T16:26:55.033Z,13.83
2019-01-23T16:29:29.664Z,13.93
2019-01-23T16:32:04.116Z,12.37
2019-01-23T16:34:42.669Z,12.13
2019-01-23T16:37:20.445Z,9.90
2019-01-23T16:39:57.317Z,8.30
2019-01-23T16:42:41.194Z,34.73
2019-01-23T16:45:16.477Z,35.27
2019-01-23T16:47:54.942Z,13.90
2019-01-23T16:50:33.023Z,15.47
2019-01-23T16:53:10.321Z,12.97
2019-01-23T16:55:44.439Z,9.73
2019-01-23T16:58:18.417Z,10.37
2019-01-23T17:00:54.110Z,12.83
2019-01-23T17:03:28.065Z,16.37
2019-01-23T17:06:03.679Z,16.07
2019-01-23T17:08:38.252Z,20.97
2019-01-23T17:11:14.245Z,21.30
2019-01-23T17:13:48.802Z,18.93
2019-01-23T17:16:23.572Z,26.73
2019-01-23T17:18:58.370Z,26.60
2019-01-23T17:21:33.431Z,30.33
2019-01-23T17:24:08.347Z,28.47
2019-01-23T17:26:42.853Z,24.57
2019-01-23T17:29:16.818Z,25.70
2019-01-23T17:31:50.571Z,26.80
2019-01-23T17:34:24.817Z,20.00
2019-01-23T17:37:01.152Z,21.60
2019-01-23T17:39:37.578Z,24.17
2019-01-23T17:42:14.818Z,24.53
2019-01-23T17:44:48.023Z,20.00
2019-01-23T17:47:21.767Z,13.60
2019-01-23T17:49:59.062Z,18.37
2019-01-23T17:52:33.170Z,17.73
2019-01-23T17:55:09.075Z,18.30
2019-01-23T17:57:43.051Z,21.83
2019-01-23T18:00:22.855Z,20.20
2019-01-23T18:02:58.042Z,19.97
2019-01-23T18:05:35.574Z,20.47
2019-01-23T18:08:13.232Z,20.43
2019-01-23T18:10:47.871Z,22.73
2019-01-23T18:13:22.926Z,24.63
2019-01-23T18:16:12.969Z,23.87
2019-01-23T18:18:48.827Z,23.60
2019-01-23T18:21:24.408Z,23.90
2019-01-23T18:23:59.515Z,23.13
2019-01-23T18:26:37.700Z,18.40
2019-01-23T18:29:10.552Z,18.43
2019-01-23T18:31:59.956Z,16.30
2019-01-23T18:35:02.072Z,15.37
2019-01-23T18:38:09.201Z,14.47
2019-01-23T18:41:21.403Z,17.57
2019-01-23T18:44:22.605Z,17.63
2019-01-23T18:47:25.742Z,15.90
2019-01-23T18:50:26.634Z,15.10
2019-01-23T18:53:05.288Z,14.10
2019-01-23T18:55:39.894Z,15.90
2019-01-23T18:58:15.286Z,18.30
2019-01-23T19:00:50.160Z,16.10
2019-01-23T19:03:25.280Z,16.37
2019-01-23T19:05:59.245Z,14.43
2019-01-23T19:08:33.870Z,11.70
2019-01-23T19:11:09.322Z,14.10
2019-01-23T19:13:44.686Z,11.90
2019-01-23T19:16:21.573Z,16.50
2019-01-23T19:18:59.366Z,14.83
2019-01-23T19:21:38.417Z,14.50
2019-01-23T19:24:12.756Z,16.33
2019-01-23T19:26:47.327Z,21.60
2019-01-23T19:29:22.132Z,19.60
2019-01-23T19:31:56.493Z,23.43
2019-01-23T19:34:39.880Z,20.70
2019-01-23T19:37:18.270Z,21.13
2019-01-23T19:39:52.357Z,19.07
2019-01-23T19:42:27.449Z,19.10
2019-01-23T19:45:04.125Z,20.17
2019-01-23T19:47:41.034Z,23.80
2019-01-23T19:50:15.914Z,27.17
2019-01-23T19:52:51.852Z,27.00
2019-01-23T19:55:28.377Z,24.60
2019-01-23T19:58:04.956Z,29.63
2019-01-23T20:00:42.915Z,29.07
2019-01-23T20:03:20.636Z,31.10
2019-01-23T20:05:55.457Z,25.00
2019-01-23T20:08:29.168Z,23.10
2019-01-23T20:11:04.007Z,23.20
2019-01-23T20:13:39.364Z,29.00
2019-01-23T20:16:16.141Z,20.40
2019-01-23T20:18:51.172Z,18.03
2019-01-23T20:21:25.179Z,18.63
2019-01-23T20:24:00.045Z,16.03
2019-01-23T20:26:34.538Z,20.23
2019-01-23T20:29:08.779Z,17.03
2019-01-23T20:31:43.041Z,21.43
2019-01-23T20:34:16.896Z,18.07
2019-01-23T20:36:53.139Z,19.10
2019-01-23T20:39:28.265Z,22.27
2019-01-23T20:42:02.309Z,21.73
2019-01-23T20:44:36.939Z,22.70
2019-01-23T20:47:13.077Z,17.73
2019-01-23T20:49:47.152Z,20.10
2019-01-23T20:52:21.141Z,49.60
2019-01-23T20:54:55.115Z,21.30
2019-01-23T20:57:29.162Z,20.63
2019-01-23T21:00:03.201Z,17.00
2019-01-23T21:02:38.615Z,11.90
2019-01-23T21:05:14.462Z,14.13
2019-01-23T21:07:49.450Z,15.07
2019-01-23T21:10:25.468Z,15.93
2019-01-23T21:13:00.356Z,15.77
2019-01-23T21:15:36.310Z,18.57
2019-01-23T21:18:12.441Z,16.77
2019-01-23T21:20:47.755Z,16.40
2019-01-23T21:23:24.027Z,15.33
2019-01-23T21:25:59.527Z,17.93
2019-01-23T21:28:33.699Z,17.60
2019-01-23T21:31:07.557Z,21.07
2019-01-23T21:33:44.047Z,21.17
2019-01-23T21:36:18.149Z,19.07
2019-01-23T21:38:52.120Z,22.70
2019-01-23T21:41:27.669Z,23.50
2019-01-23T21:44:02.943Z,24.60
2019-01-23T21:46:37.960Z,20.43
2019-01-23T21:49:15.303Z,19.40
2019-01-23T21:51:51.361Z,18.40
2019-01-23T21:54:25.411Z,18.10
2019-01-23T21:57:00.054Z,34.83
2019-01-23T21:59:35.010Z,16.17
2019-01-23T22:02:10.320Z,14.50
2019-01-23T22:04:44.258Z,16.60
2019-01-23T22:07:18.525Z,15.70
2019-01-23T22:09:52.899Z,14.93
2019-01-23T22:12:28.735Z,16.70
2019-01-23T22:15:05.071Z,16.40
2019-01-23T22:17:39.685Z,14.87
2019-01-23T22:20:16.899Z,16.50
2019-01-23T22:22:52.920Z,13.93
2019-01-23T22:25:28.732Z,14.80
2019-01-23T22:28:05.458Z,16.87
2019-01-23T22:30:39.432Z,17.47
2019-01-23T22:33:15.045Z,15.87
2019-01-23T22:35:51.236Z,14.67
2019-01-23T22:38:27.195Z,14.37
2019-01-23T22:41:05.037Z,15.10
2019-01-23T22:43:40.065Z,13.03
2019-01-23T22:46:13.921Z,16.87
2019-01-23T22:48:48.303Z,11.97
2019-01-23T22:51:23.378Z,12.77
2019-01-23T22:53:59.681Z,11.93
2019-01-23T22:56:34.688Z,11.93
2019-01-23T22:59:08.500Z,9.83
2019-01-23T23:01:43.300Z,8.83
2019-01-23T23:04:17.553Z,9.73
2019-01-23T23:06:52.332Z,10.37
2019-01-23T23:09:27.106Z,10.33
2019-01-23T23:12:02.362Z,11.90
2019-01-23T23:14:39.589Z,10.20
2019-01-23T23:17:15.403Z,11.37
2019-01-23T23:19:50.427Z,9.37
2019-01-23T23:22:24.918Z,10.47
2019-01-23T23:25:01.760Z,10.63
2019-01-23T23:27:39.457Z,8.00
2019-01-23T23:30:14.999Z,8.37
2019-01-23T23:32:50.770Z,9.10
2019-01-23T23:35:25.040Z,8.90
2019-01-23T23:38:01.031Z,7.73
2019-01-23T23:40:35.283Z,11.63
2019-01-23T23:43:09.946Z,8.07
2019-01-23T23:45:44.489Z,8.33
2019-01-23T23:48:19.391Z,8.93
2019-01-23T23:50:55.053Z,8.43
2019-01-23T23:53:29.332Z,9.23
2019-01-23T23:56:04.992Z,9.33
2019-01-23T23:58:38.990Z,8.23
